Time;durP1;ratioP1;P1;durP2;ratioP2;P2;SDS_P1;SDS_P2;PMS_P1;PMS_P2;Temp;Humidity;BMP_temperature;BMP_pressure;BME280_temperature;BME280_humidity;BME280_pressure;Samples;Min_cycle;Max_cycle;Signal;HPM_P1;HPM_P2
2021/10/17 00:00:21;;;;;;;15.40;13.63;;;5.80;99.90;;;;;;6208067;23;20446;-92
2021/10/17 00:02:48;;;;;;;17.20;14.40;;;5.80;99.90;;;;;;6183062;23;20529;-93
2021/10/17 00:05:16;;;;;;;18.10;14.83;;;5.70;99.90;;;;;;6207272;23;20399;-92
2021/10/17 00:07:43;;;;;;;17.03;15.20;;;5.80;99.90;;;;;;6208441;23;20387;-93
2021/10/17 00:10:12;;;;;;;15.57;13.87;;;5.90;99.90;;;;;;6207514;23;20396;-93
2021/10/17 00:12:39;;;;;;;15.77;14.07;;;6.10;99.90;;;;;;6208568;23;20755;-94
2021/10/17 00:15:07;;;;;;;17.60;13.50;;;6.20;99.90;;;;;;6208550;23;20399;-93
2021/10/17 00:17:33;;;;;;;15.30;13.70;;;6.20;99.90;;;;;;6208139;23;20422;-93
2021/10/17 00:19:58;;;;;;;16.50;14.73;;;6.40;99.90;;;;;;6208052;23;20446;-91
2021/10/17 00:22:24;;;;;;;16.50;14.40;;;6.50;99.90;;;;;;6208856;23;20176;-92
2021/10/17 00:24:50;;;;;;;15.93;14.07;;;6.40;99.90;;;;;;6207777;23;20634;-93
2021/10/17 00:27:21;;;;;;;16.10;14.40;;;6.40;99.90;;;;;;6208356;23;20676;-93
2021/10/17 00:29:47;;;;;;;17.37;14.43;;;6.50;99.90;;;;;;6208552;23;20165;-93
2021/10/17 00:32:13;;;;;;;16.70;14.80;;;6.60;99.90;;;;;;6207482;23;20413;-93
2021/10/17 00:34:39;;;;;;;18.03;14.37;;;6.60;99.90;;;;;;6209006;23;20172;-94
2021/10/17 00:37:07;;;;;;;18.70;14.37;;;6.50;99.90;;;;;;6209399;23;20398;-93
2021/10/17 00:39:38;;;;;;;17.57;14.30;;;6.60;99.90;;;;;;6208431;23;20442;-93
2021/10/17 00:42:05;;;;;;;15.73;13.83;;;6.60;99.90;;;;;;6207014;23;20406;-94
2021/10/17 00:44:32;;;;;;;16.87;15.07;;;6.50;99.90;;;;;;6207297;23;20390;-93
2021/10/17 00:46:58;;;;;;;14.80;13.30;;;6.40;99.90;;;;;;6209160;23;20418;-93
2021/10/17 00:49:26;;;;;;;16.03;14.33;;;6.50;99.90;;;;;;6210769;23;20418;-92
2021/10/17 00:51:52;;;;;;;15.27;13.67;;;6.50;99.90;;;;;;6210206;23;20873;-93
2021/10/17 00:54:34;;;;;;;14.03;12.50;;;6.50;99.90;;;;;;6210376;23;20395;-93
2021/10/17 00:57:05;;;;;;;13.97;12.27;;;6.70;99.90;;;;;;6209975;23;20160;-93
2021/10/17 00:59:38;;;;;;;14.13;12.63;;;6.60;99.90;;;;;;6210439;23;20852;-93
2021/10/17 01:02:11;;;;;;;14.40;12.30;;;6.60;99.90;;;;;;6209816;23;20383;-94
2021/10/17 01:04:37;;;;;;;15.43;13.83;;;6.50;99.90;;;;;;6209651;23;20398;-93
2021/10/17 01:07:04;;;;;;;13.93;12.53;;;6.40;99.90;;;;;;6209726;23;20402;-93
2021/10/17 01:09:30;;;;;;;15.23;13.30;;;6.20;99.90;;;;;;6209440;23;20402;-93
2021/10/17 01:11:55;;;;;;;15.83;14.13;;;6.20;99.90;;;;;;6209963;23;20861;-92
2021/10/17 01:14:23;;;;;;;13.20;11.90;;;6.30;99.90;;;;;;6208779;23;20691;-91
2021/10/17 01:16:51;;;;;;;13.90;11.70;;;6.30;99.90;;;;;;6208465;23;20164;-93
2021/10/17 01:19:18;;;;;;;14.37;12.80;;;6.40;99.90;;;;;;6209730;23;20442;-94
2021/10/17 01:21:45;;;;;;;13.97;12.57;;;6.50;99.90;;;;;;6210042;23;20395;-94
2021/10/17 01:24:11;;;;;;;14.10;12.57;;;6.50;99.90;;;;;;6210425;23;20404;-94
2021/10/17 01:26:37;;;;;;;14.20;12.30;;;6.50;99.90;;;;;;6225841;23;20414;-94
2021/10/17 01:29:04;;;;;;;15.63;11.97;;;6.50;99.90;;;;;;6221974;23;20403;-94
2021/10/17 01:31:49;;;;;;;14.27;12.77;;;6.50;99.90;;;;;;6210986;23;20745;-93
2021/10/17 01:34:16;;;;;;;13.53;11.87;;;6.50;99.90;;;;;;6209505;23;20403;-93
2021/10/17 01:36:42;;;;;;;14.27;12.77;;;6.60;99.90;;;;;;6210011;23;20433;-93
2021/10/17 01:39:10;;;;;;;13.63;12.10;;;6.60;99.90;;;;;;6211096;23;20500;-92
2021/10/17 01:41:37;;;;;;;15.50;13.10;;;6.60;99.90;;;;;;6233763;23;20395;-93
2021/10/17 01:44:04;;;;;;;17.80;14.07;;;6.50;99.90;;;;;;6209052;23;20402;-93
2021/10/17 01:46:29;;;;;;;18.40;13.63;;;6.40;99.90;;;;;;6210423;23;20471;-92
2021/10/17 01:48:55;;;;;;;17.77;13.07;;;6.50;99.90;;;;;;6209286;23;20435;-93
2021/10/17 01:51:23;;;;;;;17.30;13.73;;;6.30;99.90;;;;;;6209190;23;20193;-93
2021/10/17 01:53:49;;;;;;;16.90;13.30;;;6.30;99.90;;;;;;6211118;23;20176;-93
2021/10/17 01:56:17;;;;;;;17.70;14.37;;;6.40;99.90;;;;;;6210364;23;20705;-93
2021/10/17 01:58:43;;;;;;;17.90;14.90;;;6.30;99.90;;;;;;6209826;23;20171;-93
2021/10/17 02:01:11;;;;;;;16.73;14.67;;;6.20;99.90;;;;;;6209609;23;20404;-93
2021/10/17 02:03:37;;;;;;;17.80;14.00;;;6.20;99.90;;;;;;6209747;23;20284;-92
2021/10/17 02:06:08;;;;;;;17.90;14.13;;;6.30;99.90;;;;;;6208901;23;20753;-93
2021/10/17 02:08:34;;;;;;;18.13;16.03;;;6.30;99.90;;;;;;6208771;23;20159;-92
2021/10/17 02:11:03;;;;;;;20.67;16.67;;;6.30;99.90;;;;;;6209140;23;20713;-92
2021/10/17 02:13:38;;;;;;;19.60;16.13;;;6.30;99.90;;;;;;6207861;23;20246;-92
2021/10/17 02:16:04;;;;;;;22.03;17.20;;;6.30;99.90;;;;;;6207124;23;20398;-92
2021/10/17 02:18:30;;;;;;;23.00;16.70;;;6.30;99.90;;;;;;6208857;23;20877;-92
2021/10/17 02:20:55;;;;;;;20.27;16.90;;;6.30;99.90;;;;;;6208145;23;20443;-92
2021/10/17 02:23:21;;;;;;;19.07;14.77;;;6.40;99.90;;;;;;6208921;23;20882;-93
2021/10/17 02:25:46;;;;;;;20.53;14.77;;;6.40;99.90;;;;;;6209521;23;20169;-93
2021/10/17 02:28:12;;;;;;;18.03;14.43;;;6.40;99.90;;;;;;6208365;23;20161;-93
2021/10/17 02:30:38;;;;;;;16.77;14.80;;;6.40;99.90;;;;;;6209896;23;20945;-92
2021/10/17 02:33:03;;;;;;;23.80;17.50;;;6.40;99.90;;;;;;6210840;23;20205;-93
2021/10/17 02:35:29;;;;;;;20.00;16.00;;;6.40;99.90;;;;;;6210125;23;20164;-93
2021/10/17 02:37:55;;;;;;;17.37;15.20;;;6.40;99.90;;;;;;6209836;23;20167;-93
2021/10/17 02:40:21;;;;;;;17.37;15.57;;;6.50;99.90;;;;;;6210326;23;20492;-93
2021/10/17 02:42:46;;;;;;;17.63;15.80;;;6.60;99.90;;;;;;6208998;23;20716;-92
2021/10/17 02:45:12;;;;;;;17.77;15.80;;;6.60;99.90;;;;;;6208852;23;20175;-91
2021/10/17 02:47:38;;;;;;;18.80;16.50;;;6.60;99.90;;;;;;6209090;23;20160;-93
2021/10/17 02:50:07;;;;;;;17.80;15.30;;;6.60;99.90;;;;;;6210312;23;20224;-93
2021/10/17 02:52:42;;;;;;;19.00;16.50;;;6.40;99.90;;;;;;6208496;23;20404;-95
2021/10/17 02:55:08;;;;;;;21.13;16.90;;;6.40;99.90;;;;;;6215089;23;20408;-93
2021/10/17 02:57:35;;;;;;;19.13;16.50;;;6.40;99.90;;;;;;6229239;23;20869;-94
2021/10/17 03:00:01;;;;;;;17.43;14.80;;;6.40;99.90;;;;;;6212642;23;20442;-93
2021/10/17 03:02:26;;;;;;;19.13;15.33;;;6.40;99.90;;;;;;6207857;23;20413;-92
2021/10/17 03:04:52;;;;;;;19.10;15.80;;;6.50;99.90;;;;;;6209840;23;20159;-92
2021/10/17 03:07:17;;;;;;;16.90;14.97;;;6.60;99.90;;;;;;6209199;23;20562;-93
2021/10/17 03:09:45;;;;;;;16.63;14.20;;;6.60;99.90;;;;;;6209725;23;20165;-93
2021/10/17 03:12:11;;;;;;;18.20;15.93;;;6.80;99.90;;;;;;6208924;23;20274;-94
2021/10/17 03:14:38;;;;;;;18.57;15.30;;;6.80;99.90;;;;;;6208162;23;20419;-93
2021/10/17 03:17:06;;;;;;;19.73;15.73;;;6.90;99.90;;;;;;6208366;23;20239;-93
2021/10/17 03:19:32;;;;;;;16.70;14.90;;;6.90;99.90;;;;;;6209795;23;20443;-93
2021/10/17 03:22:05;;;;;;;18.63;15.27;;;6.90;99.90;;;;;;6208824;23;20426;-93
2021/10/17 03:24:30;;;;;;;18.07;15.77;;;7.00;99.90;;;;;;6208398;23;20426;-94
2021/10/17 03:27:05;;;;;;;16.90;14.13;;;7.00;99.90;;;;;;6208953;23;20391;-95
2021/10/17 03:29:30;;;;;;;16.83;14.20;;;7.00;99.90;;;;;;6208663;23;20170;-93
2021/10/17 03:31:56;;;;;;;16.87;14.63;;;7.20;99.90;;;;;;6207290;23;20393;-93
2021/10/17 03:34:21;;;;;;;15.77;14.07;;;7.20;99.90;;;;;;6207166;23;20169;-92
2021/10/17 03:36:47;;;;;;;15.90;13.00;;;7.30;99.90;;;;;;6206970;23;20167;-92
2021/10/17 03:39:13;;;;;;;16.60;15.00;;;7.40;99.90;;;;;;6205985;23;20581;-92
2021/10/17 03:41:44;;;;;;;14.63;13.03;;;7.30;99.90;;;;;;6207479;23;20185;-92
2021/10/17 03:44:10;;;;;;;19.17;15.43;;;7.20;99.90;;;;;;6204938;23;20169;-94
2021/10/17 03:46:35;;;;;;;16.43;14.13;;;7.00;99.90;;;;;;6207872;23;20453;-93
2021/10/17 03:49:01;;;;;;;16.17;14.47;;;7.00;99.90;;;;;;6209890;23;20170;-93
2021/10/17 03:51:27;;;;;;;16.00;14.37;;;7.10;99.90;;;;;;6207632;23;20165;-93
2021/10/17 03:53:55;;;;;;;16.63;13.80;;;7.00;99.90;;;;;;6207783;23;20260;-93
2021/10/17 03:56:24;;;;;;;19.27;13.87;;;6.90;99.90;;;;;;6209555;23;20166;-94
2021/10/17 03:58:49;;;;;;;17.33;15.63;;;6.90;99.90;;;;;;6207734;23;20473;-92
2021/10/17 04:01:15;;;;;;;16.20;14.50;;;6.80;99.90;;;;;;6208331;23;20167;-92
2021/10/17 04:03:41;;;;;;;17.30;14.50;;;6.90;99.90;;;;;;6207784;23;20305;-93
2021/10/17 04:06:10;;;;;;;15.73;14.07;;;7.00;99.90;;;;;;6208249;23;20205;-93
2021/10/17 04:08:35;;;;;;;14.27;12.77;;;7.10;99.90;;;;;;6208663;23;20399;-94
2021/10/17 04:11:06;;;;;;;15.13;13.50;;;7.10;99.90;;;;;;6207963;23;20396;-92
2021/10/17 04:13:31;;;;;;;15.40;13.20;;;7.10;99.90;;;;;;6208675;23;20423;-92
2021/10/17 04:15:57;;;;;;;13.90;12.20;;;7.20;99.90;;;;;;6208515;23;20397;-94
2021/10/17 04:18:23;;;;;;;16.17;13.13;;;7.30;99.90;;;;;;6208628;23;20171;-93
2021/10/17 04:20:49;;;;;;;15.77;14.10;;;7.20;99.90;;;;;;6209372;23;20578;-93
2021/10/17 04:23:15;;;;;;;14.90;13.03;;;7.30;99.90;;;;;;6210666;23;20523;-92
2021/10/17 04:25:41;;;;;;;13.50;12.10;;;7.30;99.90;;;;;;6218737;23;20410;-93
2021/10/17 04:28:06;;;;;;;14.87;12.80;;;7.30;99.90;;;;;;6225056;23;20250;-93
2021/10/17 04:30:32;;;;;;;14.23;12.47;;;7.30;99.90;;;;;;6211862;23;20223;-93
2021/10/17 04:32:58;;;;;;;17.10;13.67;;;7.20;99.90;;;;;;6210627;23;20162;-94
2021/10/17 04:35:23;;;;;;;15.53;13.80;;;7.20;99.90;;;;;;6210381;23;20170;-94
2021/10/17 04:37:49;;;;;;;16.13;12.53;;;7.20;99.90;;;;;;6211349;23;20289;-94
2021/10/17 04:40:15;;;;;;;15.80;14.10;;;7.20;99.90;;;;;;6210612;23;20201;-94
2021/10/17 04:42:41;;;;;;;14.17;12.67;;;7.20;99.90;;;;;;6210596;23;20304;-94
2021/10/17 04:45:08;;;;;;;14.00;12.43;;;7.30;99.90;;;;;;6211321;23;20430;-94
2021/10/17 04:47:34;;;;;;;14.33;12.83;;;7.20;99.90;;;;;;6211647;23;20546;-94
2021/10/17 04:50:01;;;;;;;15.60;13.53;;;7.20;99.90;;;;;;6211706;23;21138;-93
2021/10/17 04:52:29;;;;;;;15.30;13.00;;;7.10;99.90;;;;;;6209712;23;20412;-94
2021/10/17 04:54:57;;;;;;;14.97;13.07;;;7.10;99.90;;;;;;6210159;23;20393;-94
2021/10/17 04:57:23;;;;;;;16.63;13.50;;;7.10;99.90;;;;;;6210322;23;20402;-94
2021/10/17 05:00:00;;;;;;;16.13;13.63;;;7.20;99.90;;;;;;6210944;23;20439;-94
2021/10/17 05:02:47;;;;;;;16.60;13.37;;;7.20;99.90;;;;;;6186584;23;20421;-94
2021/10/17 05:05:12;;;;;;;16.70;15.00;;;6.90;99.90;;;;;;6185492;23;20394;-93
2021/10/17 05:07:39;;;;;;;15.73;13.70;;;7.00;99.90;;;;;;6184838;23;20405;-94
2021/10/17 05:10:05;;;;;;;15.57;13.27;;;6.90;99.90;;;;;;6211328;23;20165;-95
2021/10/17 05:12:31;;;;;;;15.07;13.47;;;6.90;99.90;;;;;;6184968;23;20395;-93
2021/10/17 05:14:56;;;;;;;14.60;12.90;;;6.70;99.90;;;;;;6183724;23;20478;-93
2021/10/17 05:17:22;;;;;;;14.67;13.10;;;6.60;99.90;;;;;;6182393;23;20164;-93
2021/10/17 05:19:48;;;;;;;16.93;15.07;;;6.50;99.90;;;;;;6183846;23;20298;-93
2021/10/17 05:22:13;;;;;;;18.80;16.10;;;6.30;99.90;;;;;;6183810;23;20624;-94
2021/10/17 05:24:39;;;;;;;18.50;15.03;;;6.20;99.90;;;;;;6183265;23;20191;-91
2021/10/17 05:27:04;;;;;;;18.70;15.47;;;6.10;99.90;;;;;;6184484;23;20247;-92
2021/10/17 05:29:30;;;;;;;16.73;14.97;;;6.10;99.90;;;;;;6182803;23;20219;-92
2021/10/17 05:31:56;;;;;;;18.93;15.07;;;6.00;99.90;;;;;;6184092;23;20158;-91
2021/10/17 05:34:21;;;;;;;18.27;15.20;;;6.00;99.90;;;;;;6183549;23;20506;-92
2021/10/17 05:36:47;;;;;;;20.50;15.30;;;6.00;99.90;;;;;;6183583;23;20615;-92
2021/10/17 05:39:12;;;;;;;20.00;15.30;;;5.90;99.90;;;;;;6183297;23;20191;-93
2021/10/17 05:41:38;;;;;;;15.60;13.40;;;5.90;99.90;;;;;;6182180;23;20158;-91
2021/10/17 05:44:04;;;;;;;16.27;13.80;;;5.90;99.90;;;;;;6183029;23;20159;-93
2021/10/17 05:46:30;;;;;;;16.67;13.93;;;6.00;99.90;;;;;;6185919;23;20188;-94
2021/10/17 05:48:56;;;;;;;17.50;14.87;;;6.00;99.90;;;;;;6184617;23;20730;-92
2021/10/17 05:51:21;;;;;;;16.13;13.80;;;6.10;99.90;;;;;;6183283;23;20227;-92
2021/10/17 05:53:47;;;;;;;19.00;13.97;;;6.10;99.90;;;;;;6208989;23;20172;-94
2021/10/17 05:56:12;;;;;;;14.90;13.37;;;6.20;99.90;;;;;;6196909;23;20160;-91
2021/10/17 05:58:39;;;;;;;16.87;14.03;;;6.20;99.90;;;;;;6217328;23;20180;-93
2021/10/17 06:01:07;;;;;;;16.90;14.40;;;6.20;99.90;;;;;;6185587;23;20442;-93
2021/10/17 06:04:01;;;;;;;16.77;13.47;;;6.30;99.90;;;;;;6184329;23;20164;-93
2021/10/17 06:09:07;;;;;;;14.60;13.10;;;6.20;99.90;;;;;;6209637;23;20411;-92
2021/10/17 06:11:38;;;;;;;15.50;12.77;;;6.20;99.90;;;;;;6181173;23;20391;-92
2021/10/17 06:14:06;;;;;;;15.80;13.80;;;6.00;99.90;;;;;;6180863;23;20486;-91
2021/10/17 06:16:38;;;;;;;14.57;13.07;;;6.00;99.90;;;;;;6181823;23;20425;-91
2021/10/17 06:19:04;;;;;;;12.97;11.70;;;6.00;99.90;;;;;;6182627;23;20452;-93
2021/10/17 06:21:30;;;;;;;12.53;11.23;;;6.00;99.90;;;;;;6180697;23;20738;-93
2021/10/17 06:24:00;;;;;;;12.97;11.07;;;6.10;99.90;;;;;;6183833;23;20182;-92
2021/10/17 06:26:26;;;;;;;14.80;12.27;;;6.10;99.90;;;;;;6183505;23;20404;-94
2021/10/17 06:28:52;;;;;;;14.23;12.80;;;6.10;99.90;;;;;;6184287;23;20391;-95
2021/10/17 06:31:18;;;;;;;12.70;11.40;;;6.10;99.90;;;;;;6183729;23;20177;-94
2021/10/17 06:33:43;;;;;;;13.60;12.30;;;6.00;99.90;;;;;;6184766;23;20391;-93
2021/10/17 06:36:09;;;;;;;11.30;10.17;;;6.10;99.90;;;;;;6185741;23;20164;-94
2021/10/17 06:38:35;;;;;;;13.30;11.90;;;6.10;99.90;;;;;;6184308;23;20235;-92
2021/10/17 06:41:10;;;;;;;12.83;11.20;;;6.10;99.90;;;;;;6184739;23;20763;-93
2021/10/17 06:43:35;;;;;;;15.07;13.40;;;6.10;99.90;;;;;;6181853;23;20390;-93
2021/10/17 06:46:27;;;;;;;14.70;13.20;;;6.20;99.90;;;;;;6184240;23;20741;-93
2021/10/17 06:48:53;;;;;;;13.77;12.37;;;6.40;99.90;;;;;;6184801;23;20204;-91
2021/10/17 06:51:19;;;;;;;15.90;14.13;;;6.50;99.90;;;;;;6209585;23;20512;-93
2021/10/17 06:53:45;;;;;;;16.73;14.03;;;6.50;99.90;;;;;;6173925;23;20301;-86
2021/10/17 06:56:10;;;;;;;18.53;14.67;;;6.60;99.90;;;;;;6177580;23;20255;-86
2021/10/17 06:58:36;;;;;;;20.00;16.13;;;6.60;99.90;;;;;;6180402;23;20176;-86
2021/10/17 07:01:02;;;;;;;23.33;17.53;;;6.50;99.90;;;;;;6203283;23;20191;-90
2021/10/17 07:03:28;;;;;;;20.77;15.57;;;6.60;99.90;;;;;;6199687;23;20274;-91
2021/10/17 07:05:53;;;;;;;21.27;15.83;;;6.80;99.90;;;;;;6198305;23;20406;-89
2021/10/17 07:08:19;;;;;;;17.17;15.27;;;6.90;99.90;;;;;;6199141;23;20165;-90
2021/10/17 07:10:45;;;;;;;32.23;16.00;;;7.00;99.90;;;;;;6199853;23;20164;-90
2021/10/17 07:13:10;;;;;;;21.67;15.70;;;7.00;99.90;;;;;;6199901;23;20266;-91
2021/10/17 07:15:36;;;;;;;21.23;16.50;;;7.10;99.90;;;;;;6200748;23;20190;-91
2021/10/17 07:18:02;;;;;;;20.87;16.20;;;7.20;99.90;;;;;;6199683;23;20168;-91
2021/10/17 07:20:35;;;;;;;21.60;16.10;;;7.30;99.90;;;;;;6201079;23;20594;-90
2021/10/17 07:23:00;;;;;;;16.70;14.90;;;7.40;99.90;;;;;;6200546;23;20219;-90
2021/10/17 07:25:26;;;;;;;24.70;16.20;;;7.70;99.90;;;;;;6206080;23;20646;-88
2021/10/17 07:27:54;;;;;;;19.47;15.67;;;7.90;99.90;;;;;;6206602;23;20319;-91
2021/10/17 07:30:20;;;;;;;24.80;16.87;;;7.90;99.90;;;;;;6199215;23;20202;-89
2021/10/17 07:32:47;;;;;;;20.27;15.93;;;8.00;99.90;;;;;;6199336;23;20399;-88
2021/10/17 07:35:13;;;;;;;32.03;16.47;;;8.10;99.90;;;;;;6198260;23;20397;-91
2021/10/17 07:40:39;;;;;;;16.97;14.47;;;8.10;99.90;;;;;;6201370;23;20227;-89
2021/10/17 07:43:05;;;;;;;19.53;15.27;;;8.00;99.90;;;;;;6199886;23;20401;-91
2021/10/17 07:45:32;;;;;;;29.80;16.27;;;8.10;99.90;;;;;;6198052;23;20170;-90
2021/10/17 07:51:00;;;;;;;29.20;13.33;;;7.70;99.90;;;;;;6201334;23;20710;-90
2021/10/17 07:53:26;;;;;;;18.63;15.60;;;7.50;99.90;;;;;;6198521;23;20426;-89
2021/10/17 07:55:51;;;;;;;32.17;16.30;;;7.70;99.90;;;;;;6199756;23;20395;-88
2021/10/17 07:58:17;;;;;;;46.97;17.07;;;7.50;99.90;;;;;;6202673;23;20181;-88
2021/10/17 08:00:43;;;;;;;18.87;16.07;;;7.30;99.90;;;;;;6176218;23;20605;-90
2021/10/17 08:03:08;;;;;;;20.83;15.80;;;7.30;99.90;;;;;;6175895;23;20510;-90
2021/10/17 08:05:34;;;;;;;18.20;14.90;;;7.40;99.90;;;;;;6172069;23;20176;-90
2021/10/17 08:08:00;;;;;;;15.93;14.10;;;7.90;99.90;;;;;;6175519;23;20335;-91
2021/10/17 08:10:37;;;;;;;20.50;14.70;;;8.30;99.90;;;;;;6176768;23;20183;-88
2021/10/17 08:13:05;;;;;;;18.17;13.97;;;8.50;99.90;;;;;;6173960;23;20206;-88
2021/10/17 08:15:31;;;;;;;14.60;13.00;;;8.50;99.90;;;;;;6197614;23;20907;-91
2021/10/17 08:17:57;;;;;;;15.90;13.23;;;8.40;99.90;;;;;;6172881;23;20434;-90
2021/10/17 08:20:23;;;;;;;16.33;13.40;;;8.60;99.90;;;;;;6173380;23;20209;-91
2021/10/17 08:22:48;;;;;;;16.50;14.50;;;8.60;99.90;;;;;;6175596;23;20163;-88
2021/10/17 08:25:15;;;;;;;14.90;13.30;;;8.70;99.90;;;;;;6175366;23;20306;-88
2021/10/17 08:28:09;;;;;;;14.33;12.83;;;9.00;99.90;;;;;;6175251;23;20163;-88
2021/10/17 08:30:35;;;;;;;14.70;13.20;;;9.10;99.90;;;;;;6175944;23;20971;-88
2021/10/17 08:33:00;;;;;;;14.17;12.77;;;9.30;99.90;;;;;;6174399;23;20724;-88
2021/10/17 08:35:26;;;;;;;15.53;13.90;;;9.50;99.90;;;;;;6172499;23;20229;-88
2021/10/17 08:37:51;;;;;;;18.40;16.50;;;9.70;99.90;;;;;;6173094;23;20163;-87
2021/10/17 08:40:18;;;;;;;16.43;14.43;;;9.80;99.90;;;;;;6173117;23;20230;-89
2021/10/17 08:42:43;;;;;;;16.17;14.57;;;10.30;99.90;;;;;;6172966;23;20243;-88
2021/10/17 08:45:18;;;;;;;17.10;15.30;;;10.60;99.90;;;;;;6175534;23;20441;-92
2021/10/17 08:47:46;;;;;;;16.77;14.97;;;10.70;99.90;;;;;;6173991;23;20416;-90
2021/10/17 08:50:15;;;;;;;16.83;15.10;;;11.10;99.90;;;;;;6173471;23;20449;-90
2021/10/17 08:53:00;;;;;;;16.43;14.83;;;11.40;99.90;;;;;;6174530;23;20402;-90
2021/10/17 08:55:25;;;;;;;16.53;14.93;;;11.60;99.90;;;;;;6181399;23;20465;-91
2021/10/17 08:57:53;;;;;;;16.90;15.20;;;11.70;99.90;;;;;;6180987;23;20921;-89
2021/10/17 09:00:33;;;;;;;17.63;15.83;;;11.70;99.90;;;;;;6198186;23;20231;-90
2021/10/17 09:03:01;;;;;;;17.60;15.93;;;11.30;99.90;;;;;;6200385;23;20624;-90
2021/10/17 09:05:46;;;;;;;17.10;15.40;;;11.10;99.90;;;;;;6199961;23;20481;-92
2021/10/17 09:08:19;;;;;;;18.50;15.70;;;11.30;99.90;;;;;;6199841;23;20398;-91
2021/10/17 09:10:50;;;;;;;18.67;16.77;;;11.70;99.90;;;;;;6199946;23;20924;-90
2021/10/17 09:13:16;;;;;;;18.40;16.67;;;12.00;99.90;;;;;;6200129;23;20405;-92
2021/10/17 09:15:45;;;;;;;19.67;17.67;;;12.10;99.90;;;;;;6200881;23;20410;-90
2021/10/17 09:18:16;;;;;;;19.73;17.83;;;12.20;99.90;;;;;;6198559;23;20425;-90
2021/10/17 09:20:48;;;;;;;19.23;17.33;;;12.40;99.90;;;;;;6196190;23;20770;-90
2021/10/17 09:23:21;;;;;;;18.43;16.73;;;12.40;99.90;;;;;;6194924;23;20517;-90
2021/10/17 09:25:51;;;;;;;17.10;15.40;;;12.80;99.90;;;;;;6195378;23;20470;-87
2021/10/17 09:28:29;;;;;;;19.03;17.33;;;13.30;99.90;;;;;;6200941;23;20375;-86
2021/10/17 09:31:08;;;;;;;18.87;17.03;;;13.40;99.90;;;;;;6176541;23;20397;-89
2021/10/17 09:33:57;;;;;;;19.47;17.67;;;13.00;99.90;;;;;;6196398;23;20406;-89
2021/10/17 09:36:32;;;;;;;18.87;16.97;;;12.90;99.90;;;;;;6201193;23;20394;-89
2021/10/17 09:39:12;;;;;;;18.03;16.33;;;12.70;99.90;;;;;;6199130;23;20398;-90
2021/10/17 09:41:52;;;;;;;17.97;16.30;;;12.90;99.90;;;;;;6198896;23;20418;-92
2021/10/17 09:44:37;;;;;;;19.53;16.43;;;13.10;99.90;;;;;;6201605;23;20390;-89
2021/10/17 09:47:10;;;;;;;19.20;17.40;;;13.30;99.90;;;;;;6199047;23;20409;-89
2021/10/17 09:50:11;;;;;;;19.90;17.90;;;13.40;99.90;;;;;;6200292;23;20390;-91
2021/10/17 09:52:38;;;;;;;18.23;16.40;;;13.70;99.90;;;;;;6204660;23;20413;-95
2021/10/17 09:55:08;;;;;;;17.43;15.80;;;13.80;99.90;;;;;;6210282;23;20394;-91
2021/10/17 09:57:43;;;;;;;18.17;15.70;;;14.20;99.90;;;;;;6201418;23;20405;-91
2021/10/17 10:00:09;;;;;;;16.50;15.00;;;14.40;99.90;;;;;;6176788;23;20800;-91
2021/10/17 10:02:38;;;;;;;16.53;15.00;;;14.30;99.90;;;;;;6199029;23;20401;-92
2021/10/17 10:05:11;;;;;;;18.80;15.13;;;14.60;99.90;;;;;;6196054;23;20644;-92
2021/10/17 10:07:40;;;;;;;16.67;15.13;;;14.70;99.90;;;;;;6201064;23;20411;-95
2021/10/17 10:10:06;;;;;;;17.40;15.77;;;14.60;99.90;;;;;;6205447;23;20478;-94
2021/10/17 10:12:32;;;;;;;17.67;15.97;;;14.70;99.90;;;;;;6204065;23;20651;-92
2021/10/17 10:14:59;;;;;;;17.00;15.40;;;14.80;99.90;;;;;;6203069;23;20735;-93
2021/10/17 10:17:27;;;;;;;14.80;13.60;;;15.00;99.90;;;;;;6206362;23;20816;-90
2021/10/17 10:19:59;;;;;;;17.20;15.47;;;15.20;99.90;;;;;;6202467;23;20529;-91
2021/10/17 10:22:25;;;;;;;17.20;15.50;;;15.00;99.90;;;;;;6201587;23;20460;-91
2021/10/17 10:24:57;;;;;;;16.83;15.23;;;14.50;99.90;;;;;;6205032;23;20390;-89
2021/10/17 10:27:24;;;;;;;16.57;14.97;;;15.00;99.90;;;;;;6211107;23;20490;-89
2021/10/17 10:29:49;;;;;;;15.63;14.03;;;15.30;99.90;;;;;;6201295;23;20441;-89
2021/10/17 10:32:23;;;;;;;17.40;15.80;;;15.00;99.90;;;;;;6200985;23;20379;-88
2021/10/17 10:34:51;;;;;;;16.77;15.30;;;14.40;99.90;;;;;;6201997;23;20163;-91
2021/10/17 10:37:19;;;;;;;20.90;16.63;;;14.20;99.90;;;;;;6201716;23;20479;-90
2021/10/17 10:40:01;;;;;;;14.13;12.70;;;14.20;99.90;;;;;;6200417;23;20442;-88
2021/10/17 10:42:45;;;;;;;15.43;14.00;;;14.80;99.90;;;;;;6199985;23;20911;-86
2021/10/17 10:45:37;;;;;;;16.57;14.80;;;15.20;99.90;;;;;;6198301;23;20448;-87
2021/10/17 10:48:11;;;;;;;15.23;13.83;;;15.60;99.90;;;;;;6199077;23;20425;-88
2021/10/17 10:50:42;;;;;;;15.77;13.77;;;16.10;99.90;;;;;;6199393;23;20402;-88
2021/10/17 10:53:12;;;;;;;15.13;13.80;;;16.20;99.90;;;;;;6199027;23;20437;-87
2021/10/17 10:55:45;;;;;;;14.30;13.10;;;16.50;99.90;;;;;;6198633;23;20464;-87
2021/10/17 10:58:29;;;;;;;15.97;14.43;;;16.80;99.90;;;;;;6198984;23;20387;-87
2021/10/17 11:00:57;;;;;;;14.40;13.10;;;16.20;99.90;;;;;;6173986;23;20625;-88
2021/10/17 11:03:26;;;;;;;15.07;13.57;;;15.80;99.90;;;;;;6173083;23;20449;-87
2021/10/17 11:06:07;;;;;;;14.20;13.00;;;16.30;99.90;;;;;;6172864;23;20442;-87
2021/10/17 11:08:38;;;;;;;14.70;13.40;;;15.90;99.90;;;;;;6171194;23;20469;-87
2021/10/17 11:11:05;;;;;;;13.50;12.20;;;15.60;99.90;;;;;;6197392;23;20735;-86
2021/10/17 11:13:46;;;;;;;16.07;14.67;;;16.00;99.90;;;;;;6170168;23;20405;-86
2021/10/17 11:16:23;;;;;;;14.13;12.87;;;16.00;99.90;;;;;;6172986;23;20749;-86
2021/10/17 11:18:58;;;;;;;15.27;13.87;;;15.90;99.90;;;;;;6176071;23;20406;-88
2021/10/17 11:21:37;;;;;;;13.70;12.30;;;15.90;99.90;;;;;;6176278;23;20413;-91
2021/10/17 11:24:03;;;;;;;15.77;13.97;;;15.80;99.90;;;;;;6176535;23;20417;-91
2021/10/17 11:26:29;;;;;;;16.90;15.37;;;16.50;99.90;;;;;;6176447;23;20405;-91
2021/10/17 11:28:55;;;;;;;15.00;13.50;;;16.90;99.90;;;;;;6175823;23;20894;-91
2021/10/17 11:31:24;;;;;;;14.90;13.60;;;17.50;99.90;;;;;;6176325;23;20214;-91
2021/10/17 11:33:51;;;;;;;15.50;13.93;;;18.00;99.70;;;;;;6177068;23;20199;-91
2021/10/17 11:36:18;;;;;;;17.97;16.27;;;17.80;98.80;;;;;;6177023;23;20457;-91
2021/10/17 11:38:46;;;;;;;18.37;16.73;;;18.00;99.60;;;;;;6177105;23;21224;-91
2021/10/17 11:41:14;;;;;;;19.43;17.47;;;18.00;98.40;;;;;;6177125;23;20735;-91
2021/10/17 11:43:42;;;;;;;18.67;16.87;;;17.10;99.10;;;;;;6177218;23;20401;-89
2021/10/17 11:46:17;;;;;;;17.87;16.17;;;17.10;99.80;;;;;;6175080;23;20410;-91
2021/10/17 11:48:44;;;;;;;19.40;17.53;;;17.30;99.60;;;;;;6175553;23;20477;-90
2021/10/17 11:51:15;;;;;;;18.30;16.50;;;17.70;99.40;;;;;;6177594;23;20411;-92
2021/10/17 11:53:41;;;;;;;17.83;16.17;;;17.50;99.90;;;;;;6178312;23;20553;-93
2021/10/17 11:56:12;;;;;;;20.27;18.37;;;17.90;99.20;;;;;;6190923;23;20387;-92
2021/10/17 11:58:39;;;;;;;19.07;17.27;;;17.60;98.10;;;;;;6188208;23;20422;-92
2021/10/17 12:01:14;;;;;;;19.20;17.30;;;17.00;99.70;;;;;;6201599;23;20485;-91
2021/10/17 12:03:42;;;;;;;18.43;16.73;;;17.30;99.50;;;;;;6200537;23;20394;-90
2021/10/17 12:06:18;;;;;;;20.37;18.50;;;17.30;99.40;;;;;;6200165;23;20939;-90
2021/10/17 12:08:52;;;;;;;20.50;18.50;;;17.70;99.00;;;;;;6200294;23;20399;-90
2021/10/17 12:11:18;;;;;;;19.00;17.20;;;18.00;97.90;;;;;;6200516;23;20410;-90
2021/10/17 12:13:46;;;;;;;19.27;17.53;;;17.50;99.10;;;;;;6200377;23;20585;-90
2021/10/17 12:16:16;;;;;;;18.90;17.10;;;17.10;98.70;;;;;;6199667;23;20398;-90
2021/10/17 12:18:48;;;;;;;17.27;15.50;;;17.00;99.70;;;;;;6200280;23;20406;-90
2021/10/17 12:21:18;;;;;;;17.37;15.70;;;17.50;98.90;;;;;;6200164;23;20451;-90
2021/10/17 12:23:45;;;;;;;17.50;15.90;;;17.80;98.60;;;;;;6202747;23;20390;-90
2021/10/17 12:26:19;;;;;;;18.87;17.03;;;18.60;98.50;;;;;;6199595;23;20410;-89
2021/10/17 12:29:12;;;;;;;17.93;16.33;;;19.20;96.50;;;;;;6200826;23;20427;-90
2021/10/17 12:31:53;;;;;;;16.37;14.90;;;19.60;96.00;;;;;;6200985;23;20399;-91
2021/10/17 12:34:40;;;;;;;17.17;15.60;;;21.20;95.30;;;;;;6199807;23;20398;-91
2021/10/17 12:37:07;;;;;;;17.50;15.77;;;21.60;93.20;;;;;;6200484;23;20398;-91
2021/10/17 12:39:32;;;;;;;17.57;16.00;;;23.10;90.40;;;;;;6200323;23;20831;-90
2021/10/17 12:41:59;;;;;;;17.53;15.80;;;23.50;90.10;;;;;;6200612;23;20423;-90
2021/10/17 12:44:25;;;;;;;17.17;15.50;;;22.60;87.50;;;;;;6201906;23;20175;-91
2021/10/17 12:47:05;;;;;;;19.67;17.87;;;21.90;90.70;;;;;;6203314;23;20395;-91
2021/10/17 12:49:42;;;;;;;17.43;15.73;;;20.80;90.50;;;;;;6202641;23;20516;-91